createdAt,value
2019-05-05T00:01:05.242Z,6.07
2019-05-05T00:05:30.057Z,5.50
2019-05-05T00:09:34.741Z,5.10
2019-05-05T00:13:46.345Z,5.73
2019-05-05T00:17:50.330Z,6.43
2019-05-05T00:21:55.021Z,5.50
2019-05-05T00:25:57.295Z,5.17
2019-05-05T00:29:59.891Z,5.50
2019-05-05T00:34:05.901Z,5.70
2019-05-05T00:38:08.453Z,5.40
2019-05-05T00:42:11.046Z,5.07
2019-05-05T00:46:20.650Z,5.17
2019-05-05T00:50:25.222Z,5.13
2019-05-05T00:54:27.905Z,5.07
2019-05-05T00:58:32.289Z,4.83
2019-05-05T01:02:51.090Z,4.90
2019-05-05T01:06:54.434Z,4.80
2019-05-05T01:10:57.780Z,4.63
2019-05-05T01:15:00.339Z,4.70
2019-05-05T01:19:04.548Z,5.00
2019-05-05T01:23:07.170Z,5.00
2019-05-05T01:27:09.959Z,4.73
2019-05-05T01:31:15.513Z,4.50
2019-05-05T01:35:18.378Z,5.10
2019-05-05T01:39:36.924Z,4.43
2019-05-05T01:43:39.635Z,4.13
2019-05-05T01:47:42.233Z,5.03
2019-05-05T01:51:44.859Z,4.50
2019-05-05T01:55:48.468Z,4.50
2019-05-05T01:59:51.286Z,4.57
2019-05-05T02:03:54.857Z,4.40
2019-05-05T02:07:57.839Z,4.77
2019-05-05T02:12:00.444Z,4.40
2019-05-05T02:16:04.623Z,4.07
2019-05-05T02:20:07.418Z,5.13
2019-05-05T02:24:10.070Z,4.77
2019-05-05T02:28:15.072Z,5.27
2019-05-05T02:32:36.145Z,5.07
2019-05-05T02:36:38.770Z,4.10
2019-05-05T02:40:41.738Z,4.97
2019-05-05T02:44:45.623Z,4.90
2019-05-05T02:48:55.092Z,5.23
2019-05-05T02:53:00.276Z,4.83
2019-05-05T02:57:04.620Z,4.60
2019-05-05T03:01:25.201Z,4.20
2019-05-05T03:05:28.649Z,4.63
2019-05-05T03:09:31.770Z,4.77
2019-05-05T03:13:39.082Z,4.23
2019-05-05T03:17:41.682Z,5.33
2019-05-05T03:21:44.341Z,4.97
2019-05-05T03:25:47.501Z,4.97
2019-05-05T03:29:50.211Z,4.90
2019-05-05T03:33:54.939Z,5.10
2019-05-05T03:37:57.671Z,5.03
2019-05-05T03:42:24.530Z,4.70
2019-05-05T03:46:27.133Z,4.63
2019-05-05T03:50:29.722Z,4.90
2019-05-05T03:54:34.263Z,4.70
2019-05-05T03:58:36.972Z,4.73
2019-05-05T04:02:54.087Z,4.70
2019-05-05T04:06:56.795Z,4.57
2019-05-05T04:11:03.827Z,4.57
2019-05-05T04:15:06.217Z,4.53
2019-05-05T04:19:09.853Z,4.97
2019-05-05T04:23:14.121Z,4.70
2019-05-05T04:27:16.820Z,4.43
2019-05-05T04:31:20.481Z,4.93
2019-05-05T04:35:24.612Z,4.90
2019-05-05T04:39:27.274Z,4.93
2019-05-05T04:43:29.878Z,4.53
2019-05-05T04:47:35.238Z,4.53
2019-05-05T04:51:47.643Z,4.60
2019-05-05T04:55:46.453Z,4.93
2019-05-05T04:59:50.778Z,4.13
2019-05-05T05:04:21.613Z,5.90
2019-05-05T05:08:25.744Z,5.20
2019-05-05T05:12:28.367Z,4.80
2019-05-05T05:16:30.862Z,5.10
2019-05-05T05:20:34.023Z,5.70
2019-05-05T05:24:36.946Z,4.37
2019-05-05T05:28:39.497Z,4.73
2019-05-05T05:32:43.992Z,5.00
2019-05-05T05:36:46.442Z,4.90
2019-05-05T05:40:53.707Z,5.17
2019-05-05T05:45:18.400Z,4.67
2019-05-05T05:49:25.905Z,4.90
2019-05-05T05:53:28.555Z,5.10
2019-05-05T05:57:34.553Z,4.27
2019-05-05T06:01:37.679Z,5.47
2019-05-05T06:05:40.277Z,5.50
2019-05-05T06:09:43.765Z,4.73
2019-05-05T06:13:47.655Z,5.80
2019-05-05T06:17:50.251Z,4.90
2019-05-05T06:21:54.293Z,5.90
2019-05-05T06:25:56.949Z,5.07
2019-05-05T06:29:59.549Z,5.20
2019-05-05T06:34:03.718Z,5.00
2019-05-05T06:38:06.322Z,5.47
2019-05-05T06:42:26.678Z,4.53
2019-05-05T06:46:34.278Z,4.80
2019-05-05T06:50:36.881Z,4.77
2019-05-05T06:54:39.517Z,4.23
2019-05-05T06:58:42.065Z,5.60
2019-05-05T07:02:45.682Z,5.57
2019-05-05T07:06:54.172Z,5.33
2019-05-05T07:10:54.760Z,4.40
2019-05-05T07:14:57.050Z,5.30
2019-05-05T07:18:59.625Z,5.17
2019-05-05T07:23:05.003Z,4.20
2019-05-05T07:27:06.570Z,4.63
2019-05-05T07:31:09.277Z,3.43
2019-05-05T07:35:29.385Z,3.00
2019-05-05T07:39:40.651Z,2.90
2019-05-05T07:43:44.162Z,2.63
2019-05-05T07:47:47.485Z,2.27
2019-05-05T07:51:50.468Z,1.80
2019-05-05T07:55:54.206Z,1.87
2019-05-05T07:59:56.841Z,2.10
2019-05-05T08:03:59.567Z,2.20
2019-05-05T08:08:04.437Z,1.67
2019-05-05T08:12:06.944Z,1.73
2019-05-05T08:16:18.876Z,1.60
2019-05-05T08:20:33.974Z,1.60
2019-05-05T08:25:05.209Z,1.30
2019-05-05T08:29:25.622Z,1.80
2019-05-05T08:33:33.643Z,1.57
2019-05-05T08:37:36.303Z,1.70
2019-05-05T08:41:58.115Z,2.00
2019-05-05T08:46:01.313Z,1.77
2019-05-05T08:50:07.369Z,2.53
2019-05-05T08:54:47.153Z,2.10
2019-05-05T08:58:57.812Z,2.43
2019-05-05T09:03:00.424Z,2.50
2019-05-05T09:07:04.930Z,2.20
2019-05-05T09:11:07.355Z,2.10
2019-05-05T09:15:09.927Z,2.07
2019-05-05T09:19:16.483Z,2.07
2019-05-05T09:23:19.128Z,1.93
2019-05-05T09:27:53.639Z,2.27
2019-05-05T09:31:56.266Z,2.10
2019-05-05T09:35:59.050Z,1.90
2019-05-05T09:40:02.026Z,2.47
2019-05-05T09:44:04.686Z,2.50
2019-05-05T09:48:07.479Z,3.07
2019-05-05T09:52:11.107Z,2.60
2019-05-05T09:56:14.541Z,2.87
2019-05-05T10:00:17.444Z,2.80
2019-05-05T10:04:20.202Z,3.10
2019-05-05T10:08:23.998Z,3.00
2019-05-05T10:12:26.754Z,3.40
2019-05-05T10:16:29.434Z,4.03
2019-05-05T10:20:35.022Z,4.93
2019-05-05T10:24:44.398Z,3.40
2019-05-05T10:28:47.032Z,3.33
2019-05-05T10:32:49.632Z,3.80
2019-05-05T10:36:53.607Z,3.97
2019-05-05T10:40:57.436Z,3.77
2019-05-05T10:45:04.380Z,3.70
2019-05-05T10:49:07.290Z,3.87
2019-05-05T10:53:09.977Z,4.07
2019-05-05T10:57:14.427Z,4.23
2019-05-05T11:01:16.950Z,4.40
2019-05-05T11:05:19.550Z,4.63
2019-05-05T11:09:23.847Z,4.40
2019-05-05T11:13:27.034Z,3.00
2019-05-05T11:17:29.617Z,3.63
2019-05-05T11:21:34.191Z,3.27
2019-05-05T11:25:36.890Z,3.20
2019-05-05T11:29:59.191Z,3.40
2019-05-05T11:34:15.797Z,3.30
2019-05-05T11:38:20.301Z,2.70
2019-05-05T11:42:23.873Z,3.10
2019-05-05T11:46:26.585Z,2.90
2019-05-05T11:50:29.330Z,3.20
2019-05-05T11:54:31.965Z,3.67
2019-05-05T11:58:35.811Z,3.13
2019-05-05T12:02:38.661Z,3.30
2019-05-05T12:06:41.478Z,3.93
2019-05-05T12:10:50.469Z,3.30
2019-05-05T12:14:54.033Z,4.33
2019-05-05T12:18:57.036Z,2.60
2019-05-05T12:22:59.585Z,3.13
2019-05-05T12:27:17.182Z,3.60
2019-05-05T12:31:24.775Z,3.90
2019-05-05T12:35:27.522Z,3.60
2019-05-05T12:39:30.085Z,3.33
2019-05-05T12:43:34.035Z,3.10
2019-05-05T12:47:56.513Z,2.97
2019-05-05T12:52:04.557Z,4.20
2019-05-05T12:56:04.088Z,2.93
2019-05-05T13:00:07.334Z,3.40
2019-05-05T13:04:10.018Z,3.23
2019-05-05T13:08:14.335Z,3.67
2019-05-05T13:12:24.517Z,3.10
2019-05-05T13:16:28.392Z,3.30
2019-05-05T13:20:54.114Z,3.60
2019-05-05T13:25:19.218Z,3.17
2019-05-05T13:29:24.450Z,4.03
2019-05-05T13:33:26.692Z,2.97
2019-05-05T13:37:29.637Z,3.33
2019-05-05T13:41:33.988Z,4.03
2019-05-05T13:45:43.585Z,3.60
2019-05-05T13:49:46.598Z,2.90
2019-05-05T13:53:49.447Z,3.07
2019-05-05T13:57:52.085Z,3.33
2019-05-05T14:01:54.712Z,2.50
2019-05-05T14:05:57.259Z,2.80
2019-05-05T14:09:59.819Z,3.00
2019-05-05T14:14:03.677Z,2.93
2019-05-05T14:18:09.124Z,2.80
2019-05-05T14:22:11.876Z,3.50
2019-05-05T14:26:24.707Z,2.47
2019-05-05T14:30:39.013Z,2.10
2019-05-05T14:34:44.299Z,2.93
2019-05-05T14:38:50.050Z,3.83
2019-05-05T14:42:54.334Z,2.90
2019-05-05T14:46:56.875Z,2.70
2019-05-05T14:50:59.498Z,2.90
2019-05-05T14:55:03.913Z,2.63
2019-05-05T14:59:06.747Z,2.30
2019-05-05T15:03:09.305Z,2.50
2019-05-05T15:07:34.519Z,2.67
2019-05-05T15:12:03.794Z,3.07
2019-05-05T15:16:09.792Z,2.70
2019-05-05T15:20:14.369Z,2.80
2019-05-05T15:24:17.073Z,2.87
2019-05-05T15:28:19.745Z,3.07
2019-05-05T15:32:24.045Z,3.23
2019-05-05T15:36:26.755Z,3.30
2019-05-05T15:40:29.254Z,3.40
2019-05-05T15:44:31.802Z,3.50
2019-05-05T15:48:34.317Z,3.43
2019-05-05T15:52:36.834Z,3.30
2019-05-05T15:56:39.432Z,3.73
2019-05-05T16:00:44.198Z,4.83
2019-05-05T16:04:46.460Z,4.27
2019-05-05T16:08:50.486Z,4.00
2019-05-05T16:12:53.944Z,4.67
2019-05-05T16:17:14.867Z,3.87
2019-05-05T16:21:37.024Z,4.60
2019-05-05T16:25:41.741Z,4.03
2019-05-05T16:29:44.422Z,5.17
2019-05-05T16:33:48.686Z,3.93
2019-05-05T16:37:51.423Z,4.53
2019-05-05T16:41:54.235Z,4.30
2019-05-05T16:45:58.181Z,4.10
2019-05-05T16:50:00.805Z,3.50
2019-05-05T16:54:07.689Z,3.77
2019-05-05T16:58:10.585Z,3.83
2019-05-05T17:02:13.934Z,3.57
2019-05-05T17:06:16.459Z,4.23
2019-05-05T17:10:19.616Z,3.20
2019-05-05T17:14:29.790Z,3.30
2019-05-05T17:18:54.860Z,2.97
2019-05-05T17:23:00.858Z,3.03
2019-05-05T17:27:03.621Z,3.30
2019-05-05T17:31:06.275Z,2.77
2019-05-05T17:35:09.227Z,3.37
2019-05-05T17:39:11.748Z,3.50
2019-05-05T17:43:27.783Z,4.33
2019-05-05T17:47:41.483Z,4.37
2019-05-05T17:52:14.331Z,4.20
2019-05-05T17:56:18.561Z,3.50
2019-05-05T18:00:24.315Z,3.67
2019-05-05T18:04:26.777Z,3.73
2019-05-05T18:08:44.982Z,3.40
2019-05-05T18:13:14.283Z,3.40
2019-05-05T18:17:16.818Z,3.60
2019-05-05T18:21:19.356Z,5.30
2019-05-05T18:25:23.773Z,3.77
2019-05-05T18:29:26.268Z,3.93
2019-05-05T18:33:28.835Z,4.27
2019-05-05T18:37:31.401Z,3.60
2019-05-05T18:41:44.018Z,4.10
2019-05-05T18:45:48.553Z,4.07
2019-05-05T18:49:51.146Z,3.70
2019-05-05T18:53:55.031Z,4.60
2019-05-05T18:57:57.848Z,3.63
2019-05-05T19:02:20.309Z,4.13
2019-05-05T19:06:40.717Z,3.90
2019-05-05T19:10:43.421Z,4.23
2019-05-05T19:14:46.125Z,4.07
2019-05-05T19:18:48.725Z,4.03
2019-05-05T19:22:59.385Z,4.70
2019-05-05T19:27:03.728Z,5.93
2019-05-05T19:31:06.782Z,4.00
2019-05-05T19:35:09.484Z,4.87
2019-05-05T19:39:13.714Z,5.00
2019-05-05T19:43:16.362Z,3.90
2019-05-05T19:47:21.746Z,5.13
2019-05-05T19:51:24.339Z,4.30
2019-05-05T19:55:26.900Z,3.87
2019-05-05T19:59:29.683Z,3.73
2019-05-05T20:03:34.681Z,3.57
2019-05-05T20:07:36.780Z,3.70
2019-05-05T20:11:39.269Z,3.70
2019-05-05T20:16:04.641Z,3.73
2019-05-05T20:20:07.460Z,3.50
2019-05-05T20:24:10.096Z,4.50
2019-05-05T20:28:14.429Z,3.40
2019-05-05T20:32:21.218Z,4.40
2019-05-05T20:36:24.954Z,4.30
2019-05-05T20:40:32.312Z,4.57
2019-05-05T20:44:34.902Z,4.70
2019-05-05T20:48:37.487Z,3.53
2019-05-05T20:52:44.229Z,3.97
2019-05-05T20:56:46.982Z,4.67
2019-05-05T21:00:49.565Z,4.13
2019-05-05T21:04:54.222Z,4.00
2019-05-05T21:08:56.830Z,4.10
2019-05-05T21:12:59.443Z,4.00
2019-05-05T21:17:03.966Z,3.67
2019-05-05T21:21:09.315Z,3.73
2019-05-05T21:25:33.578Z,4.13
2019-05-05T21:29:41.428Z,3.73
2019-05-05T21:33:40.052Z,3.10
2019-05-05T21:37:44.740Z,3.70
2019-05-05T21:41:47.000Z,4.27
2019-05-05T21:45:49.580Z,3.70
2019-05-05T21:49:54.222Z,3.03
2019-05-05T21:54:15.234Z,3.00
2019-05-05T21:58:41.340Z,3.93
2019-05-05T22:02:44.102Z,4.27
2019-05-05T22:06:46.719Z,3.80
2019-05-05T22:10:50.294Z,3.60
2019-05-05T22:14:55.106Z,3.77
2019-05-05T22:18:57.771Z,3.70
2019-05-05T22:23:05.067Z,4.40
2019-05-05T22:27:07.598Z,3.63
2019-05-05T22:31:10.162Z,3.30
2019-05-05T22:35:14.041Z,3.50
2019-05-05T22:39:17.312Z,3.77
2019-05-05T22:43:19.846Z,3.57
2019-05-05T22:47:23.658Z,3.30
2019-05-05T22:51:26.281Z,3.37
2019-05-05T22:55:28.881Z,2.60
2019-05-05T22:59:31.588Z,3.57
2019-05-05T23:03:52.814Z,3.77
2019-05-05T23:07:55.349Z,3.70
2019-05-05T23:12:00.725Z,3.60
2019-05-05T23:16:11.363Z,4.30
2019-05-05T23:20:45.338Z,4.80
2019-05-05T23:24:54.315Z,4.07
2019-05-05T23:28:56.908Z,4.00
2019-05-05T23:33:01.289Z,4.13
2019-05-05T23:37:04.315Z,4.80
2019-05-05T23:41:08.271Z,5.30
2019-05-05T23:45:13.864Z,4.90
2019-05-05T23:49:16.467Z,5.27
2019-05-05T23:53:19.026Z,4.60
2019-05-05T23:57:24.510Z,5.10
